createdAt,value
2018-04-12T00:01:41.877Z,8.70
2018-04-12T00:04:09.937Z,8.47
2018-04-12T00:06:37.997Z,8.70
2018-04-12T00:09:06.089Z,8.70
2018-04-12T00:11:34.156Z,8.30
2018-04-12T00:14:02.213Z,8.40
2018-04-12T00:16:30.279Z,8.83
2018-04-12T00:18:58.343Z,8.77
2018-04-12T00:21:26.418Z,8.40
2018-04-12T00:23:54.484Z,8.77
2018-04-12T00:26:22.586Z,7.97
2018-04-12T00:28:50.652Z,8.07
2018-04-12T00:31:18.711Z,8.30
2018-04-12T00:33:46.788Z,9.33
2018-04-12T00:36:14.846Z,8.80
2018-04-12T00:38:42.910Z,8.23
2018-04-12T00:41:11.009Z,9.03
2018-04-12T00:43:39.060Z,9.70
2018-04-12T00:46:07.122Z,9.60
2018-04-12T00:48:35.206Z,10.47
2018-04-12T00:51:03.300Z,10.67
2018-04-12T00:53:43.821Z,10.23
2018-04-12T00:56:12.668Z,9.33
2018-04-12T00:58:40.728Z,9.03
2018-04-12T01:01:09.036Z,9.33
2018-04-12T01:03:37.112Z,8.90
2018-04-12T01:06:05.952Z,10.10
2018-04-12T01:08:34.017Z,9.17
2018-04-12T01:11:02.118Z,10.10
2018-04-12T01:13:30.158Z,9.03
2018-04-12T01:15:58.227Z,8.70
2018-04-12T01:18:26.301Z,9.30
2018-04-12T01:20:54.396Z,8.83
2018-04-12T01:23:22.423Z,9.50
2018-04-12T01:25:50.514Z,9.00
2018-04-12T01:28:18.576Z,9.47
2018-04-12T01:30:46.635Z,9.30
2018-04-12T01:33:17.586Z,8.83
2018-04-12T01:35:45.647Z,8.73
2018-04-12T01:38:13.697Z,9.47
2018-04-12T01:40:42.541Z,8.87
2018-04-12T01:43:10.638Z,10.47
2018-04-12T01:45:38.698Z,8.93
2018-04-12T01:48:06.758Z,8.70
2018-04-12T01:50:34.881Z,8.87
2018-04-12T01:53:02.910Z,8.87
2018-04-12T01:55:30.970Z,8.97
2018-04-12T01:57:59.806Z,8.37
2018-04-12T02:00:28.646Z,8.40
2018-04-12T02:02:57.477Z,8.80
2018-04-12T02:05:26.302Z,8.53
2018-04-12T02:07:54.387Z,7.63
2018-04-12T02:10:22.453Z,7.77
2018-04-12T02:12:50.517Z,7.43
2018-04-12T02:15:18.588Z,8.57
2018-04-12T02:17:46.656Z,8.07
2018-04-12T02:20:14.719Z,7.70
2018-04-12T02:22:42.837Z,7.83
2018-04-12T02:25:10.897Z,9.00
2018-04-12T02:27:38.956Z,8.30
2018-04-12T02:30:07.040Z,8.93
2018-04-12T02:32:35.875Z,9.17
2018-04-12T02:35:04.718Z,8.83
2018-04-12T02:37:32.770Z,9.50
2018-04-12T02:40:00.824Z,8.90
2018-04-12T02:42:28.902Z,9.13
2018-04-12T02:44:56.960Z,9.33
2018-04-12T02:47:25.791Z,8.50
2018-04-12T02:49:53.868Z,9.00
2018-04-12T02:52:21.926Z,8.03
2018-04-12T02:54:49.992Z,9.10
2018-04-12T02:57:18.088Z,9.03
2018-04-12T02:59:46.153Z,8.73
2018-04-12T03:02:14.221Z,9.30
2018-04-12T03:04:42.284Z,8.30
2018-04-12T03:07:10.382Z,8.70
2018-04-12T03:09:38.454Z,8.93
2018-04-12T03:12:06.523Z,8.43
2018-04-12T03:14:34.614Z,9.00
2018-04-12T03:17:02.673Z,8.23
2018-04-12T03:19:30.732Z,8.00
2018-04-12T03:21:58.808Z,9.00
2018-04-12T03:24:26.918Z,8.43
2018-04-12T03:26:54.955Z,8.37
2018-04-12T03:29:23.043Z,8.50
2018-04-12T03:31:51.867Z,9.17
2018-04-12T03:34:19.931Z,8.47
2018-04-12T03:36:48.003Z,8.53
2018-04-12T03:39:16.072Z,9.03
2018-04-12T03:41:44.146Z,8.50
2018-04-12T03:44:12.213Z,8.20
2018-04-12T03:46:40.282Z,7.80
2018-04-12T03:49:08.375Z,7.77
2018-04-12T03:51:36.421Z,7.87
2018-04-12T03:54:04.483Z,8.20
2018-04-12T03:56:32.547Z,9.20
2018-04-12T03:59:00.637Z,8.80
2018-04-12T04:01:28.695Z,8.40
2018-04-12T04:03:57.528Z,7.70
2018-04-12T04:06:25.600Z,7.90
2018-04-12T04:08:53.664Z,8.70
2018-04-12T04:11:21.719Z,8.87
2018-04-12T04:13:49.800Z,7.90
2018-04-12T04:16:29.732Z,7.53
2018-04-12T04:19:09.652Z,8.00
2018-04-12T04:21:38.490Z,7.13
2018-04-12T04:24:06.552Z,7.43
2018-04-12T04:26:34.626Z,7.07
2018-04-12T04:29:02.690Z,8.20
2018-04-12T04:31:30.752Z,8.23
2018-04-12T04:33:58.829Z,7.70
2018-04-12T04:36:26.885Z,6.90
2018-04-12T04:38:55.722Z,7.20
2018-04-12T04:41:23.801Z,6.60
2018-04-12T04:43:51.859Z,7.10
2018-04-12T04:46:19.915Z,7.00
2018-04-12T04:48:47.982Z,6.93
2018-04-12T04:51:16.052Z,6.80
2018-04-12T04:53:44.102Z,6.87
2018-04-12T04:56:12.170Z,6.80
2018-04-12T04:58:40.222Z,7.17
2018-04-12T05:01:08.287Z,6.10
2018-04-12T05:03:36.352Z,6.60
2018-04-12T05:06:04.424Z,6.37
2018-04-12T05:08:32.494Z,6.90
2018-04-12T05:11:00.560Z,7.27
2018-04-12T05:13:28.622Z,6.90
2018-04-12T05:15:57.558Z,6.77
2018-04-12T05:18:25.625Z,7.17
2018-04-12T05:20:53.683Z,6.93
2018-04-12T05:23:21.751Z,7.30
2018-04-12T05:25:49.822Z,6.57
2018-04-12T05:28:17.929Z,7.60
2018-04-12T05:30:45.989Z,7.20
2018-04-12T05:33:14.049Z,6.60
2018-04-12T05:35:42.111Z,5.97
2018-04-12T05:38:10.171Z,6.80
2018-04-12T05:40:38.235Z,6.77
2018-04-12T05:43:06.315Z,6.30
2018-04-12T05:45:34.371Z,6.60
2018-04-12T05:48:02.427Z,6.53
2018-04-12T05:50:30.504Z,7.07
2018-04-12T05:52:58.553Z,6.80
2018-04-12T05:55:26.621Z,6.90
2018-04-12T05:57:54.703Z,6.40
2018-04-12T06:00:22.778Z,6.03
2018-04-12T06:02:50.851Z,7.23
2018-04-12T06:05:18.903Z,6.70
2018-04-12T06:07:46.952Z,6.93
2018-04-12T06:10:15.045Z,5.90
2018-04-12T06:12:43.883Z,5.80
2018-04-12T06:15:11.906Z,6.63
2018-04-12T06:17:39.976Z,7.23
2018-04-12T06:20:08.045Z,6.37
2018-04-12T06:22:36.114Z,7.00
2018-04-12T06:25:04.167Z,6.50
2018-04-12T06:27:32.233Z,6.60
2018-04-12T06:30:00.291Z,6.50
2018-04-12T06:35:02.845Z,6.43
2018-04-12T06:37:30.917Z,6.63
2018-04-12T06:39:58.987Z,6.20
2018-04-12T06:42:27.036Z,5.80
2018-04-12T06:44:55.110Z,6.20
2018-04-12T06:47:23.214Z,6.80
2018-04-12T06:49:51.275Z,6.40
2018-04-12T06:52:19.397Z,6.37
2018-04-12T06:54:47.405Z,6.57
2018-04-12T06:57:15.469Z,6.60
2018-04-12T06:59:43.561Z,6.60
2018-04-12T07:02:11.625Z,6.70
2018-04-12T07:04:39.680Z,7.10
2018-04-12T07:07:07.754Z,6.97
2018-04-12T07:09:35.813Z,6.67
2018-04-12T07:12:03.878Z,6.40
2018-04-12T07:14:31.967Z,6.47
2018-04-12T07:17:00.022Z,7.13
2018-04-12T07:19:28.093Z,7.10
2018-04-12T07:21:56.185Z,6.50
2018-04-12T07:24:24.244Z,6.20
2018-04-12T07:26:53.224Z,7.40
2018-04-12T07:29:21.299Z,5.80
2018-04-12T07:31:49.359Z,6.43
2018-04-12T07:34:17.419Z,6.10
2018-04-12T07:36:46.256Z,6.77
2018-04-12T07:39:14.325Z,6.10
2018-04-12T07:41:42.385Z,6.60
2018-04-12T07:44:10.477Z,6.63
2018-04-12T07:46:38.537Z,7.07
2018-04-12T07:49:06.599Z,7.17
2018-04-12T07:51:34.665Z,7.27
2018-04-12T07:54:02.733Z,6.60
2018-04-12T07:56:30.821Z,6.60
2018-04-12T07:58:58.882Z,6.40
2018-04-12T08:01:26.943Z,6.33
2018-04-12T08:03:55.050Z,6.13
2018-04-12T08:06:23.874Z,6.60
2018-04-12T08:08:52.697Z,6.30
2018-04-12T08:11:20.765Z,6.80
2018-04-12T08:13:48.824Z,6.90
2018-04-12T08:16:16.903Z,6.70
2018-04-12T08:18:44.975Z,6.40
2018-04-12T08:21:13.039Z,6.50
2018-04-12T08:23:41.174Z,6.83
2018-04-12T08:26:09.189Z,6.53
2018-04-12T08:28:37.245Z,7.30
2018-04-12T08:31:05.298Z,6.93
2018-04-12T08:33:34.148Z,6.63
2018-04-12T08:36:02.205Z,6.90
2018-04-12T08:38:30.269Z,7.07
2018-04-12T08:40:58.345Z,7.20
2018-04-12T08:43:26.421Z,7.13
2018-04-12T08:45:54.495Z,7.13
2018-04-12T08:48:22.547Z,8.23
2018-04-12T08:50:50.745Z,8.40
2018-04-12T08:53:18.809Z,8.00
2018-04-12T08:55:46.875Z,8.80
2018-04-12T08:58:14.979Z,7.80
2018-04-12T09:00:43.031Z,7.63
2018-04-12T09:03:11.104Z,8.90
2018-04-12T09:05:39.165Z,8.70
2018-04-12T09:08:07.228Z,8.53
2018-04-12T09:10:35.319Z,8.80
2018-04-12T09:13:03.387Z,8.47
2018-04-12T09:15:31.450Z,9.40
2018-04-12T09:17:59.575Z,10.03
2018-04-12T09:20:27.590Z,9.60
2018-04-12T09:22:55.645Z,9.40
2018-04-12T09:25:23.725Z,9.20
2018-04-12T09:27:51.789Z,10.77
2018-04-12T09:30:19.861Z,10.10
2018-04-12T09:32:47.932Z,9.83
2018-04-12T09:35:16.000Z,9.80
2018-04-12T09:37:44.068Z,10.03
2018-04-12T09:40:12.136Z,9.60
2018-04-12T09:42:40.213Z,10.47
2018-04-12T09:45:08.279Z,9.50
2018-04-12T09:47:36.345Z,9.40
2018-04-12T09:50:04.421Z,9.63
2018-04-12T09:52:32.481Z,9.57
2018-04-12T09:55:00.541Z,9.00
2018-04-12T09:57:29.400Z,9.50
2018-04-12T09:59:57.523Z,9.57
2018-04-12T10:02:28.483Z,10.10
2018-04-12T10:05:00.302Z,9.47
2018-04-12T10:07:34.707Z,9.63
2018-04-12T10:10:02.777Z,8.93
2018-04-12T10:12:30.865Z,8.93
2018-04-12T10:14:59.699Z,9.37
2018-04-12T10:17:27.790Z,8.60
2018-04-12T10:19:55.829Z,8.67
2018-04-12T10:22:23.909Z,8.60
2018-04-12T10:24:51.984Z,7.90
2018-04-12T10:27:20.047Z,7.80
2018-04-12T10:29:48.105Z,6.00
2018-04-12T10:32:16.186Z,5.10
2018-04-12T10:34:44.258Z,6.30
2018-04-12T10:37:12.301Z,7.97
2018-04-12T10:39:40.385Z,7.80
2018-04-12T10:42:08.445Z,7.30
2018-04-12T10:44:36.509Z,7.00
2018-04-12T10:47:05.339Z,7.13
2018-04-12T10:49:33.427Z,6.53
2018-04-12T10:52:01.562Z,5.60
2018-04-12T10:54:30.358Z,6.00
2018-04-12T10:56:58.424Z,5.87
2018-04-12T10:59:26.526Z,5.63
2018-04-12T11:01:54.585Z,6.77
2018-04-12T11:04:22.653Z,6.80
2018-04-12T11:06:50.717Z,6.13
2018-04-12T11:09:18.783Z,5.93
2018-04-12T11:11:46.835Z,5.80
2018-04-12T11:14:14.897Z,5.60
2018-04-12T11:16:43.710Z,4.70
2018-04-12T11:19:11.761Z,5.20
2018-04-12T11:21:39.880Z,5.17
2018-04-12T11:24:08.686Z,5.13
2018-04-12T11:26:36.761Z,5.90
2018-04-12T11:29:04.828Z,4.83
2018-04-12T11:31:32.901Z,5.10
2018-04-12T11:34:01.026Z,4.70
2018-04-12T11:36:29.069Z,5.00
2018-04-12T11:38:57.123Z,5.40
2018-04-12T11:41:25.183Z,6.10
2018-04-12T11:43:53.249Z,6.37
2018-04-12T11:46:21.313Z,5.80
2018-04-12T11:48:49.363Z,5.53
2018-04-12T11:51:17.431Z,3.27
2018-04-12T11:53:45.489Z,3.60
2018-04-12T11:56:13.592Z,3.23
2018-04-12T11:58:42.386Z,2.53
2018-04-12T12:01:10.437Z,3.20
2018-04-12T12:03:38.509Z,3.43
2018-04-12T12:06:06.560Z,3.20
2018-04-12T12:08:34.628Z,2.90
2018-04-12T12:11:02.692Z,3.50
2018-04-12T12:13:30.731Z,2.80
2018-04-12T12:15:58.794Z,2.80
2018-04-12T12:18:26.854Z,2.43
2018-04-12T12:20:54.908Z,2.17
2018-04-12T12:23:22.986Z,2.40
2018-04-12T12:25:51.036Z,1.90
2018-04-12T12:28:19.103Z,2.57
2018-04-12T12:30:47.164Z,2.50
2018-04-12T12:33:15.224Z,2.33
2018-04-12T12:35:43.312Z,2.03
2018-04-12T12:38:11.384Z,2.00
2018-04-12T12:40:39.428Z,1.83
2018-04-12T12:43:08.277Z,2.00
2018-04-12T12:45:36.335Z,1.70
2018-04-12T12:48:04.397Z,2.10
2018-04-12T12:50:32.463Z,2.77
2018-04-12T12:53:00.527Z,3.60
2018-04-12T12:55:28.603Z,2.87
2018-04-12T12:57:56.662Z,2.90
2018-04-12T13:00:24.732Z,2.20
2018-04-12T13:02:52.797Z,2.20
2018-04-12T13:05:20.850Z,1.70
2018-04-12T13:07:49.681Z,1.93
2018-04-12T13:10:17.781Z,1.70
2018-04-12T13:12:45.833Z,1.27
2018-04-12T13:15:13.889Z,1.30
2018-04-12T13:17:41.955Z,1.43
2018-04-12T13:20:10.018Z,1.80
2018-04-12T13:22:38.069Z,1.73
2018-04-12T13:25:06.164Z,1.50
2018-04-12T13:27:34.197Z,1.50
2018-04-12T13:30:02.271Z,1.30
2018-04-12T13:32:30.319Z,1.40
2018-04-12T13:34:58.388Z,1.23
2018-04-12T13:37:26.465Z,1.40
2018-04-12T13:39:54.544Z,1.50
2018-04-12T13:42:22.606Z,1.50
2018-04-12T13:44:50.726Z,1.30
2018-04-12T13:47:18.766Z,1.50
2018-04-12T13:49:46.830Z,1.60
2018-04-12T13:52:14.893Z,1.70
2018-04-12T13:54:42.975Z,1.70
2018-04-12T13:57:11.027Z,1.40
2018-04-12T13:59:39.081Z,1.50
2018-04-12T14:02:07.157Z,1.60
2018-04-12T14:04:35.226Z,1.20
2018-04-12T14:07:03.288Z,1.40
2018-04-12T14:09:31.358Z,1.30
2018-04-12T14:11:59.454Z,1.50
2018-04-12T14:14:27.516Z,1.20
2018-04-12T14:16:55.580Z,1.33
2018-04-12T14:19:23.682Z,1.27
2018-04-12T14:21:51.749Z,1.20
2018-04-12T14:24:19.813Z,1.30
2018-04-12T14:26:47.883Z,1.50
2018-04-12T14:29:15.958Z,1.60
2018-04-12T14:31:44.010Z,1.50
2018-04-12T14:34:12.077Z,1.47
2018-04-12T14:36:40.143Z,1.70
2018-04-12T14:39:08.198Z,1.80
2018-04-12T14:41:36.277Z,1.60
2018-04-12T14:44:04.342Z,1.10
2018-04-12T14:46:32.431Z,1.60
2018-04-12T14:49:00.513Z,1.10
2018-04-12T14:51:28.571Z,1.17
2018-04-12T14:53:56.676Z,1.00
2018-04-12T14:56:24.744Z,1.20
2018-04-12T14:58:52.789Z,0.97
2018-04-12T15:01:20.872Z,1.00
2018-04-12T15:03:48.932Z,1.10
2018-04-12T15:06:17.017Z,1.00
2018-04-12T15:08:45.074Z,0.90
2018-04-12T15:11:13.131Z,1.10
2018-04-12T15:13:41.197Z,1.00
2018-04-12T15:16:09.260Z,0.90
2018-04-12T15:18:37.308Z,1.13
2018-04-12T15:21:05.369Z,1.20
2018-04-12T15:23:33.433Z,1.17
2018-04-12T15:26:01.511Z,1.10
2018-04-12T15:28:29.574Z,1.10
2018-04-12T15:30:57.627Z,1.37
2018-04-12T15:33:25.678Z,1.10
2018-04-12T15:35:53.731Z,1.23
2018-04-12T15:38:21.799Z,1.20
2018-04-12T15:40:49.873Z,1.10
2018-04-12T15:43:17.927Z,1.00
2018-04-12T15:45:45.981Z,0.90
2018-04-12T15:48:14.826Z,1.10
2018-04-12T15:50:42.880Z,1.10
2018-04-12T15:53:10.957Z,1.23
2018-04-12T15:55:39.011Z,1.10
2018-04-12T15:58:07.065Z,1.10
2018-04-12T16:00:35.137Z,1.20
2018-04-12T16:03:03.200Z,0.90
2018-04-12T16:05:31.258Z,1.20
2018-04-12T16:07:59.322Z,1.20
2018-04-12T16:10:27.374Z,1.13
2018-04-12T16:12:55.434Z,1.20
2018-04-12T16:15:23.517Z,1.20
2018-04-12T16:17:51.571Z,1.33
2018-04-12T16:20:19.631Z,8.53
2018-04-12T16:22:47.715Z,1.60
2018-04-12T16:25:15.764Z,1.10
2018-04-12T16:27:43.813Z,1.27
2018-04-12T16:30:12.655Z,1.80
2018-04-12T16:32:40.708Z,1.57
2018-04-12T16:35:08.767Z,1.20
2018-04-12T16:37:36.861Z,1.10
2018-04-12T16:40:04.921Z,1.20
2018-04-12T16:42:32.981Z,1.40
2018-04-12T16:45:01.053Z,1.20
2018-04-12T16:47:29.114Z,1.40
2018-04-12T16:49:57.166Z,1.07
2018-04-12T16:52:25.233Z,1.40
2018-04-12T16:54:53.285Z,1.23
2018-04-12T16:57:21.361Z,1.20
2018-04-12T16:59:49.426Z,1.50
2018-04-12T17:02:17.481Z,1.73
2018-04-12T17:04:45.551Z,1.47
2018-04-12T17:07:13.608Z,1.30
2018-04-12T17:09:41.705Z,1.20
2018-04-12T17:12:09.849Z,1.10
2018-04-12T17:14:37.873Z,1.20
2018-04-12T17:17:05.945Z,1.40
2018-04-12T17:19:34.003Z,1.50
2018-04-12T17:22:02.097Z,1.20
2018-04-12T17:24:30.169Z,1.20
2018-04-12T17:26:58.225Z,1.47
2018-04-12T17:29:26.278Z,1.30
2018-04-12T17:31:54.363Z,1.33
2018-04-12T17:34:22.414Z,1.37
2018-04-12T17:36:50.473Z,1.20
2018-04-12T17:39:18.547Z,1.40
2018-04-12T17:41:46.607Z,1.50
2018-04-12T17:44:14.663Z,1.30
2018-04-12T17:46:42.755Z,1.50
2018-04-12T17:49:10.823Z,1.10
2018-04-12T17:51:38.872Z,1.40
2018-04-12T17:54:06.957Z,1.50
2018-04-12T17:56:35.023Z,1.50
2018-04-12T17:59:03.082Z,2.63
2018-04-12T18:01:31.157Z,1.60
2018-04-12T18:03:59.205Z,1.63
2018-04-12T18:06:27.269Z,1.60
2018-04-12T18:08:56.106Z,1.80
2018-04-12T18:11:24.158Z,1.40
2018-04-12T18:13:52.282Z,1.40
2018-04-12T18:16:20.342Z,1.40
2018-04-12T18:18:48.393Z,1.17
2018-04-12T18:21:16.461Z,1.60
2018-04-12T18:23:44.545Z,1.60
2018-04-12T18:26:12.617Z,2.03
2018-04-12T18:28:40.673Z,1.70
2018-04-12T18:31:08.766Z,1.60
2018-04-12T18:33:36.828Z,1.57
2018-04-12T18:36:04.866Z,1.70
2018-04-12T18:38:32.955Z,1.40
2018-04-12T18:41:02.567Z,1.30
2018-04-12T18:43:31.023Z,1.80
2018-04-12T18:45:59.099Z,2.20
2018-04-12T18:48:27.159Z,2.43
2018-04-12T18:50:55.218Z,1.90
2018-04-12T18:53:24.085Z,1.67
2018-04-12T18:55:52.124Z,1.60
2018-04-12T18:58:20.205Z,2.13
2018-04-12T19:00:48.297Z,1.77
2018-04-12T19:03:16.348Z,1.50
2018-04-12T19:05:44.408Z,1.67
2018-04-12T19:08:12.482Z,1.70
2018-04-12T19:10:40.542Z,1.50
2018-04-12T19:13:08.596Z,1.50
2018-04-12T19:15:37.424Z,1.67
2018-04-12T19:18:05.514Z,1.70
2018-04-12T19:20:33.591Z,1.57
2018-04-12T19:23:01.636Z,1.43
2018-04-12T19:25:29.702Z,1.53
2018-04-12T19:27:58.528Z,2.23
2018-04-12T19:30:27.367Z,1.70
2018-04-12T19:32:55.437Z,2.00
2018-04-12T19:35:23.486Z,1.60
2018-04-12T19:37:51.553Z,1.57
2018-04-12T19:40:19.611Z,1.57
2018-04-12T19:42:48.460Z,1.43
2018-04-12T19:45:16.541Z,1.90
2018-04-12T19:47:44.597Z,1.43
2018-04-12T19:50:12.653Z,1.70
2018-04-12T19:52:40.725Z,1.90
2018-04-12T19:55:08.797Z,1.70
2018-04-12T19:57:36.861Z,1.60
2018-04-12T20:00:04.918Z,1.33
2018-04-12T20:02:32.981Z,1.90
2018-04-12T20:05:01.100Z,2.87
2018-04-12T20:07:29.128Z,2.80
2018-04-12T20:09:57.184Z,2.10
2018-04-12T20:12:26.021Z,2.03
2018-04-12T20:14:54.082Z,1.80
2018-04-12T20:17:22.143Z,2.40
2018-04-12T20:19:50.216Z,2.50
2018-04-12T20:22:18.268Z,2.60
2018-04-12T20:24:46.360Z,2.50
2018-04-12T20:27:14.415Z,2.80
2018-04-12T20:29:42.472Z,2.20
2018-04-12T20:32:10.544Z,1.97
2018-04-12T20:34:38.610Z,1.90
2018-04-12T20:37:06.691Z,1.90
2018-04-12T20:39:34.890Z,2.10
2018-04-12T20:42:02.946Z,2.50
2018-04-12T20:44:31.000Z,1.90
2018-04-12T20:46:59.061Z,3.00
2018-04-12T20:49:27.151Z,1.90
2018-04-12T20:51:55.217Z,2.67
2018-04-12T20:54:23.292Z,2.00
2018-04-12T20:56:51.369Z,1.87
2018-04-12T20:59:19.547Z,1.90
2018-04-12T21:01:47.593Z,2.00
2018-04-12T21:04:15.656Z,2.50
2018-04-12T21:06:43.710Z,2.20
2018-04-12T21:09:11.781Z,3.80
2018-04-12T21:11:39.853Z,4.87
2018-04-12T21:14:07.933Z,4.60
2018-04-12T21:16:36.007Z,2.43
2018-04-12T21:19:04.056Z,2.30
2018-04-12T21:21:32.113Z,2.87
2018-04-12T21:24:00.185Z,3.03
2018-04-12T21:26:28.237Z,2.00
2018-04-12T21:28:56.313Z,2.33
2018-04-12T21:31:24.369Z,2.30
2018-04-12T21:33:52.433Z,1.73
2018-04-12T21:36:20.499Z,1.80
2018-04-12T21:38:48.553Z,2.10
2018-04-12T21:41:16.618Z,2.07
2018-04-12T21:43:44.713Z,2.60
2018-04-12T21:46:12.760Z,2.37
2018-04-12T21:48:41.575Z,2.67
2018-04-12T21:51:09.641Z,2.70
2018-04-12T21:53:37.696Z,2.40
2018-04-12T21:56:05.756Z,2.40
2018-04-12T21:58:33.818Z,2.40
2018-04-12T22:01:01.878Z,2.33
2018-04-12T22:03:31.486Z,2.40
2018-04-12T22:05:59.553Z,2.20
2018-04-12T22:08:27.609Z,2.50
2018-04-12T22:10:55.690Z,1.90
2018-04-12T22:13:23.744Z,2.33
2018-04-12T22:15:52.583Z,2.07
2018-04-12T22:18:21.408Z,2.20
2018-04-12T22:20:49.472Z,2.43
2018-04-12T22:23:17.536Z,2.83
2018-04-12T22:25:45.594Z,2.67
2018-04-12T22:28:13.666Z,2.30
2018-04-12T22:30:42.494Z,2.50
2018-04-12T22:33:10.551Z,2.50
2018-04-12T22:35:38.636Z,3.27
2018-04-12T22:38:06.686Z,3.20
2018-04-12T22:40:34.747Z,3.23
2018-04-12T22:43:02.805Z,3.10
2018-04-12T22:45:30.904Z,2.90
2018-04-12T22:47:58.956Z,2.70
2018-04-12T22:50:27.025Z,2.57
2018-04-12T22:52:55.091Z,3.57
2018-04-12T22:55:23.142Z,2.87
2018-04-12T22:57:51.196Z,2.97
2018-04-12T23:00:20.067Z,3.23
2018-04-12T23:02:48.124Z,3.20
2018-04-12T23:05:16.212Z,3.00
2018-04-12T23:07:44.260Z,3.50
2018-04-12T23:10:12.328Z,3.17
2018-04-12T23:12:40.390Z,3.33
2018-04-12T23:15:08.443Z,3.00
2018-04-12T23:17:37.290Z,3.30
2018-04-12T23:20:05.348Z,3.60
2018-04-12T23:22:33.403Z,3.90
2018-04-12T23:25:01.470Z,3.03
2018-04-12T23:27:29.544Z,3.37
2018-04-12T23:29:57.599Z,3.50
2018-04-12T23:32:25.661Z,3.03
2018-04-12T23:34:53.749Z,3.40
2018-04-12T23:37:21.807Z,3.27
2018-04-12T23:39:50.625Z,2.90
2018-04-12T23:42:18.701Z,3.07
2018-04-12T23:44:46.755Z,3.17
2018-04-12T23:47:14.809Z,3.00
2018-04-12T23:49:42.872Z,3.67
2018-04-12T23:52:10.924Z,3.20
2018-04-12T23:54:38.985Z,3.17
2018-04-12T23:57:07.046Z,2.90
2018-04-12T23:59:35.106Z,2.97
